createdAt,value
2023-05-19T00:00:03.447Z,8.35
2023-05-19T00:01:03.467Z,8.25
2023-05-19T00:02:03.083Z,8.16
2023-05-19T00:03:03.077Z,8.08
2023-05-19T00:04:03.115Z,7.99
2023-05-19T00:05:03.090Z,7.91
2023-05-19T00:06:02.751Z,7.87
2023-05-19T00:07:02.959Z,7.85
2023-05-19T00:08:03.079Z,7.83
2023-05-19T00:09:02.763Z,7.84
2023-05-19T00:10:02.787Z,7.83
2023-05-19T00:11:02.828Z,7.85
2023-05-19T00:12:02.799Z,7.85
2023-05-19T00:13:02.715Z,7.83
2023-05-19T00:14:02.562Z,7.82
2023-05-19T00:15:02.949Z,7.81
2023-05-19T00:16:02.858Z,7.76
2023-05-19T00:17:02.997Z,7.71
2023-05-19T00:18:03.024Z,7.68
2023-05-19T00:19:03.089Z,7.67
2023-05-19T00:20:02.725Z,7.64
2023-05-19T00:21:02.669Z,7.62
2023-05-19T00:22:02.839Z,7.59
2023-05-19T00:23:02.630Z,7.60
2023-05-19T00:24:02.603Z,7.57
2023-05-19T00:25:02.917Z,7.56
2023-05-19T00:26:03.457Z,7.56
2023-05-19T00:27:03.490Z,7.58
2023-05-19T00:28:03.065Z,7.64
2023-05-19T00:29:03.441Z,7.66
2023-05-19T00:30:02.794Z,7.68
2023-05-19T00:31:02.534Z,7.68
2023-05-19T00:32:02.719Z,7.64
2023-05-19T00:33:02.694Z,7.65
2023-05-19T00:34:02.605Z,7.66
2023-05-19T00:35:02.965Z,7.67
2023-05-19T00:36:03.177Z,7.69
2023-05-19T00:37:03.159Z,7.71
2023-05-19T00:38:03.396Z,7.74
2023-05-19T00:39:03.080Z,7.74
2023-05-19T00:40:03.624Z,7.73
2023-05-19T00:41:03.017Z,7.71
2023-05-19T00:42:03.390Z,7.71
2023-05-19T00:43:03.252Z,7.69
2023-05-19T00:44:03.119Z,7.70
2023-05-19T00:45:02.794Z,7.69
2023-05-19T00:46:02.686Z,7.66
2023-05-19T00:47:02.803Z,7.62
2023-05-19T00:48:02.740Z,7.57
2023-05-19T00:49:02.563Z,7.55
2023-05-19T00:50:03.060Z,7.53
2023-05-19T00:51:02.997Z,7.51
2023-05-19T00:52:02.889Z,7.45
2023-05-19T00:53:03.216Z,7.40
2023-05-19T00:54:03.179Z,7.39
2023-05-19T00:55:02.773Z,7.34
2023-05-19T00:56:02.612Z,7.27
2023-05-19T00:57:02.547Z,7.23
2023-05-19T00:58:02.480Z,7.23
2023-05-19T00:59:02.889Z,7.23
2023-05-19T01:00:02.692Z,7.22
2023-05-19T01:01:02.792Z,7.19
2023-05-19T01:02:03.193Z,7.16
2023-05-19T01:03:03.072Z,7.12
2023-05-19T01:04:02.820Z,7.10
2023-05-19T01:05:02.597Z,7.13
2023-05-19T01:06:02.365Z,7.11
2023-05-19T01:07:02.250Z,7.10
2023-05-19T01:08:02.225Z,7.10
2023-05-19T01:09:02.307Z,7.05
2023-05-19T01:10:02.969Z,7.03
2023-05-19T01:11:02.544Z,7.02
2023-05-19T01:12:02.428Z,7.00
2023-05-19T01:13:02.974Z,6.98
2023-05-19T01:14:02.495Z,6.96
2023-05-19T01:15:02.376Z,6.96
2023-05-19T01:16:02.465Z,6.97
2023-05-19T01:17:02.309Z,6.95
2023-05-19T01:18:01.843Z,6.94
2023-05-19T01:19:02.095Z,6.92
2023-05-19T01:20:02.614Z,6.91
2023-05-19T01:21:02.166Z,6.88
2023-05-19T01:22:02.604Z,6.81
2023-05-19T01:23:02.454Z,6.72
2023-05-19T01:24:02.807Z,6.67
2023-05-19T01:25:02.161Z,6.62
2023-05-19T01:26:01.581Z,6.58
2023-05-19T01:27:02.134Z,6.54
2023-05-19T01:28:01.554Z,6.54
2023-05-19T01:29:01.663Z,6.52
2023-05-19T01:30:01.994Z,6.50
2023-05-19T01:31:01.912Z,6.49
2023-05-19T01:32:02.243Z,6.53
2023-05-19T01:33:02.060Z,6.54
2023-05-19T01:34:01.552Z,6.54
2023-05-19T01:35:02.469Z,6.56
2023-05-19T01:36:02.323Z,6.57
2023-05-19T01:37:02.125Z,6.60
2023-05-19T01:38:02.347Z,6.60
2023-05-19T01:39:02.516Z,6.59
2023-05-19T01:40:01.985Z,6.57
2023-05-19T01:41:01.583Z,6.54
2023-05-19T01:42:02.024Z,6.55
2023-05-19T01:43:01.467Z,6.54
2023-05-19T01:44:02.030Z,6.53
2023-05-19T01:45:01.886Z,6.51
2023-05-19T01:46:01.882Z,6.57
2023-05-19T01:47:02.427Z,6.60
2023-05-19T01:48:02.165Z,6.62
2023-05-19T01:49:02.275Z,6.68
2023-05-19T01:50:02.125Z,6.69
2023-05-19T01:51:02.670Z,6.73
2023-05-19T01:52:02.240Z,6.73
2023-05-19T01:53:02.121Z,6.76
2023-05-19T01:54:02.578Z,6.75
2023-05-19T01:55:01.771Z,6.72
2023-05-19T01:56:01.650Z,6.72
2023-05-19T01:57:02.077Z,6.73
2023-05-19T01:58:01.974Z,6.71
2023-05-19T01:59:01.699Z,6.70
2023-05-19T02:00:02.693Z,6.64
2023-05-19T02:01:02.382Z,6.56
2023-05-19T02:02:02.363Z,6.49
2023-05-19T02:03:02.295Z,6.49
2023-05-19T02:04:02.282Z,6.45
2023-05-19T02:05:02.368Z,6.44
2023-05-19T02:06:02.536Z,6.40
2023-05-19T02:07:02.359Z,6.35
2023-05-19T02:08:02.394Z,6.28
2023-05-19T02:09:02.248Z,6.24
2023-05-19T02:10:02.341Z,6.21
2023-05-19T02:11:02.924Z,6.18
2023-05-19T02:12:02.404Z,6.15
2023-05-19T02:13:02.340Z,6.12
2023-05-19T02:14:02.925Z,6.11
2023-05-19T02:15:03.068Z,6.07
2023-05-19T02:16:02.658Z,6.04
2023-05-19T02:17:02.727Z,6.03
2023-05-19T02:18:02.618Z,6.04
2023-05-19T02:19:02.553Z,6.02
2023-05-19T02:20:02.354Z,6.04
2023-05-19T02:21:02.205Z,6.05
2023-05-19T02:22:02.705Z,6.04
2023-05-19T02:23:02.229Z,6.02
2023-05-19T02:24:02.215Z,5.98
2023-05-19T02:25:01.869Z,5.96
2023-05-19T02:26:02.251Z,5.94
2023-05-19T02:27:01.712Z,5.90
2023-05-19T02:28:02.121Z,5.87
2023-05-19T02:29:01.993Z,5.85
2023-05-19T02:30:01.828Z,5.84
2023-05-19T02:31:02.018Z,5.85
2023-05-19T02:32:02.346Z,5.87
2023-05-19T02:33:01.808Z,5.90
2023-05-19T02:34:02.194Z,5.90
2023-05-19T02:35:02.374Z,5.93
2023-05-19T02:36:02.940Z,5.95
2023-05-19T02:37:02.736Z,5.93
2023-05-19T02:38:02.410Z,5.86
2023-05-19T02:39:02.314Z,5.83
2023-05-19T02:40:01.871Z,5.76
2023-05-19T02:41:02.320Z,5.71
2023-05-19T02:42:01.820Z,5.65
2023-05-19T02:43:01.907Z,5.59
2023-05-19T02:44:02.321Z,5.55
2023-05-19T02:45:01.984Z,5.47
2023-05-19T02:46:01.799Z,5.44
2023-05-19T02:47:01.745Z,5.39
2023-05-19T02:48:02.357Z,5.32
2023-05-19T02:49:02.077Z,5.30
2023-05-19T02:50:02.135Z,5.28
2023-05-19T02:51:02.164Z,5.28
2023-05-19T02:52:02.270Z,5.30
2023-05-19T02:53:02.147Z,5.32
2023-05-19T02:54:01.831Z,5.31
2023-05-19T02:55:02.802Z,5.28
2023-05-19T02:56:02.298Z,5.25
2023-05-19T02:57:02.692Z,5.23
2023-05-19T02:58:02.620Z,5.24
2023-05-19T02:59:02.565Z,5.24
2023-05-19T03:00:02.384Z,5.25
2023-05-19T03:01:02.409Z,5.25
2023-05-19T03:02:02.402Z,5.27
2023-05-19T03:03:02.292Z,5.33
2023-05-19T03:04:02.476Z,5.37
2023-05-19T03:05:02.461Z,5.41
2023-05-19T03:06:02.286Z,5.43
2023-05-19T03:07:02.829Z,5.46
2023-05-19T03:08:02.786Z,5.49
2023-05-19T03:09:02.542Z,5.48
2023-05-19T03:10:03.465Z,5.50
2023-05-19T03:11:03.083Z,5.55
2023-05-19T03:12:02.944Z,5.55
2023-05-19T03:13:02.833Z,5.55
2023-05-19T03:14:03.217Z,5.52
2023-05-19T03:15:02.797Z,5.46
2023-05-19T03:16:02.742Z,5.42
2023-05-19T03:17:02.682Z,5.40
2023-05-19T03:18:02.587Z,5.39
2023-05-19T03:19:02.865Z,5.32
2023-05-19T03:20:02.534Z,5.34
2023-05-19T03:21:02.471Z,5.38
2023-05-19T03:22:02.279Z,5.40
2023-05-19T03:23:02.490Z,5.40
2023-05-19T03:24:02.457Z,5.38
2023-05-19T03:25:03.114Z,5.40
2023-05-19T03:26:03.109Z,5.38
2023-05-19T03:27:02.877Z,5.37
2023-05-19T03:28:03.212Z,5.34
2023-05-19T03:29:03.029Z,5.30
2023-05-19T03:30:05.702Z,5.28
2023-05-19T03:31:03.121Z,5.25
2023-05-19T03:32:03.016Z,5.25
2023-05-19T03:33:03.368Z,5.22
2023-05-19T03:34:03.117Z,5.20
2023-05-19T03:35:02.716Z,5.17
2023-05-19T03:36:02.684Z,5.18
2023-05-19T03:37:03.025Z,5.16
2023-05-19T03:38:02.767Z,5.11
2023-05-19T03:39:02.334Z,5.07
2023-05-19T03:40:03.328Z,5.05
2023-05-19T03:41:02.892Z,5.05
2023-05-19T03:42:02.768Z,5.05
2023-05-19T03:43:03.400Z,5.06
2023-05-19T03:44:03.127Z,5.07
2023-05-19T03:45:02.923Z,5.04
2023-05-19T03:46:02.437Z,5.03
2023-05-19T03:47:02.500Z,5.07
2023-05-19T03:48:02.434Z,5.08
2023-05-19T03:49:02.442Z,5.10
2023-05-19T03:50:02.612Z,5.12
2023-05-19T03:51:03.138Z,5.08
2023-05-19T03:52:02.820Z,5.10
2023-05-19T03:53:03.180Z,5.12
2023-05-19T03:54:02.789Z,5.10
2023-05-19T03:55:03.422Z,5.10
2023-05-19T03:56:03.370Z,5.08
2023-05-19T03:57:03.397Z,5.08
2023-05-19T03:58:03.575Z,5.06
2023-05-19T03:59:02.940Z,5.03
2023-05-19T04:00:02.259Z,5.03
2023-05-19T04:01:02.439Z,5.00
2023-05-19T04:02:02.850Z,5.00
2023-05-19T04:03:02.581Z,4.98
2023-05-19T04:04:02.386Z,4.96
2023-05-19T04:05:02.655Z,4.94
2023-05-19T04:06:02.647Z,4.92
2023-05-19T04:07:03.045Z,4.87
2023-05-19T04:08:02.833Z,4.82
2023-05-19T04:09:03.027Z,4.81
2023-05-19T04:10:03.405Z,4.81
2023-05-19T04:11:03.116Z,4.82
2023-05-19T04:12:03.151Z,4.84
2023-05-19T04:13:03.060Z,4.89
2023-05-19T04:14:02.790Z,4.88
2023-05-19T04:15:02.862Z,4.87
2023-05-19T04:16:03.419Z,4.86
2023-05-19T04:17:03.082Z,4.88
2023-05-19T04:18:03.125Z,4.93
2023-05-19T04:19:03.573Z,4.96
2023-05-19T04:20:02.289Z,4.97
2023-05-19T04:21:02.637Z,4.98
2023-05-19T04:22:02.603Z,5.00
2023-05-19T04:23:02.746Z,5.01
2023-05-19T04:24:02.755Z,5.01
2023-05-19T04:25:02.845Z,5.01
2023-05-19T04:26:02.824Z,4.98
2023-05-19T04:27:02.843Z,4.98
2023-05-19T04:28:03.442Z,4.99
2023-05-19T04:29:03.388Z,4.96
2023-05-19T04:30:02.271Z,4.95
2023-05-19T04:31:02.352Z,4.95
2023-05-19T04:32:02.391Z,4.96
2023-05-19T04:33:02.263Z,4.96
2023-05-19T04:34:02.774Z,4.95
2023-05-19T04:35:02.925Z,4.94
2023-05-19T04:36:02.531Z,4.94
2023-05-19T04:37:02.784Z,4.93
2023-05-19T04:38:02.909Z,4.91
2023-05-19T04:39:02.862Z,4.89
2023-05-19T04:40:02.028Z,4.85
2023-05-19T04:41:02.111Z,4.86
2023-05-19T04:42:01.856Z,4.87
2023-05-19T04:43:01.905Z,4.85
2023-05-19T04:44:01.995Z,4.82
2023-05-19T04:45:01.957Z,4.78
2023-05-19T04:46:02.492Z,4.75
2023-05-19T04:47:02.343Z,4.74
2023-05-19T04:48:02.440Z,4.77
2023-05-19T04:49:02.220Z,4.76
2023-05-19T04:50:02.933Z,4.77
2023-05-19T04:51:02.699Z,4.80
2023-05-19T04:52:02.620Z,4.82
2023-05-19T04:53:02.664Z,4.86
2023-05-19T04:54:02.432Z,4.88
2023-05-19T04:55:02.183Z,4.95
2023-05-19T04:56:02.324Z,5.00
2023-05-19T04:57:02.644Z,5.04
2023-05-19T04:58:02.376Z,5.06
2023-05-19T04:59:02.524Z,5.09
2023-05-19T05:00:02.490Z,5.12
2023-05-19T05:01:02.842Z,5.16
2023-05-19T05:02:02.611Z,5.21
2023-05-19T05:03:02.661Z,5.24
2023-05-19T05:04:02.994Z,5.27
2023-05-19T05:05:02.307Z,5.28
2023-05-19T05:06:01.798Z,5.35
2023-05-19T05:07:01.809Z,5.39
2023-05-19T05:08:01.810Z,5.43
2023-05-19T05:09:01.828Z,5.45
2023-05-19T05:10:02.089Z,5.46
2023-05-19T05:11:01.814Z,5.48
2023-05-19T05:12:01.893Z,5.48
2023-05-19T05:13:01.969Z,5.50
2023-05-19T05:14:02.046Z,5.53
2023-05-19T05:15:02.126Z,5.58
2023-05-19T05:16:02.273Z,5.60
2023-05-19T05:17:02.361Z,5.65
2023-05-19T05:18:02.177Z,5.71
2023-05-19T05:19:02.181Z,5.76
2023-05-19T05:20:02.247Z,5.84
2023-05-19T05:21:02.294Z,5.92
2023-05-19T05:22:02.294Z,5.98
2023-05-19T05:23:02.292Z,6.05
2023-05-19T05:24:02.293Z,6.13
2023-05-19T05:25:02.713Z,6.19
2023-05-19T05:26:02.389Z,6.24
2023-05-19T05:27:02.362Z,6.32
2023-05-19T05:28:02.681Z,6.41
2023-05-19T05:29:02.418Z,6.49
2023-05-19T05:30:02.559Z,6.60
2023-05-19T05:31:02.364Z,6.68
2023-05-19T05:32:02.269Z,6.77
2023-05-19T05:33:02.706Z,6.85
2023-05-19T05:34:02.827Z,6.95
2023-05-19T05:35:02.647Z,7.06
2023-05-19T05:36:02.697Z,7.12
2023-05-19T05:37:02.372Z,7.20
2023-05-19T05:38:03.052Z,7.30
2023-05-19T05:39:03.008Z,7.40
2023-05-19T05:40:02.751Z,7.50
2023-05-19T05:41:02.779Z,7.57
2023-05-19T05:42:02.594Z,7.66
2023-05-19T05:43:02.552Z,7.74
2023-05-19T05:44:03.119Z,7.83
2023-05-19T05:45:01.998Z,7.93
2023-05-19T05:46:02.061Z,8.03
2023-05-19T05:47:02.370Z,8.14
2023-05-19T05:48:01.904Z,8.23
2023-05-19T05:49:01.822Z,8.34
2023-05-19T05:50:02.527Z,8.43
2023-05-19T05:51:02.559Z,8.54
2023-05-19T05:52:06.360Z,8.63
2023-05-19T05:53:02.942Z,8.72
2023-05-19T05:54:02.318Z,8.81
2023-05-19T05:55:02.043Z,8.91
2023-05-19T05:56:02.078Z,9.03
2023-05-19T05:57:02.198Z,9.14
2023-05-19T05:58:02.424Z,9.26
2023-05-19T05:59:02.195Z,9.37
2023-05-19T06:00:02.388Z,9.49
2023-05-19T06:01:01.937Z,9.60
2023-05-19T06:02:02.083Z,9.72
2023-05-19T06:03:02.490Z,9.84
2023-05-19T06:04:02.429Z,9.95
2023-05-19T06:05:03.623Z,10.05
2023-05-19T06:06:03.355Z,10.14
2023-05-19T06:07:03.760Z,10.25
2023-05-19T06:08:03.484Z,10.36
2023-05-19T06:09:03.606Z,10.46
2023-05-19T06:10:02.671Z,10.57
2023-05-19T06:11:02.497Z,10.68
2023-05-19T06:12:02.999Z,10.78
2023-05-19T06:13:02.434Z,10.87
2023-05-19T06:14:02.587Z,10.98
2023-05-19T06:15:02.567Z,11.09
2023-05-19T06:16:02.557Z,11.19
2023-05-19T06:17:03.004Z,11.29
2023-05-19T06:18:03.170Z,11.39
2023-05-19T06:19:03.055Z,11.47
2023-05-19T06:20:03.241Z,11.57
2023-05-19T06:21:02.831Z,11.67
2023-05-19T06:22:02.907Z,11.76
2023-05-19T06:23:03.109Z,11.87
2023-05-19T06:24:03.375Z,11.98
2023-05-19T06:25:03.518Z,12.07
2023-05-19T06:26:03.314Z,12.16
2023-05-19T06:27:03.421Z,12.28
2023-05-19T06:28:03.424Z,12.37
2023-05-19T06:29:03.626Z,12.47
2023-05-19T06:30:02.788Z,12.53
2023-05-19T06:31:02.964Z,12.54
2023-05-19T06:32:02.765Z,12.57
2023-05-19T06:33:02.976Z,12.64
2023-05-19T06:34:02.837Z,12.72
2023-05-19T06:35:02.935Z,12.81
2023-05-19T06:36:03.068Z,12.91
2023-05-19T06:37:03.062Z,12.98
2023-05-19T06:38:02.956Z,13.05
2023-05-19T06:39:02.940Z,13.12
2023-05-19T06:40:03.005Z,13.19
2023-05-19T06:41:02.659Z,13.29
2023-05-19T06:42:02.952Z,13.37
2023-05-19T06:43:02.932Z,13.44
2023-05-19T06:44:03.006Z,13.49
2023-05-19T06:45:02.568Z,13.52
2023-05-19T06:46:02.243Z,13.55
2023-05-19T06:47:02.413Z,13.61
2023-05-19T06:48:02.760Z,13.68
2023-05-19T06:49:02.429Z,13.77
2023-05-19T06:50:03.569Z,13.86
2023-05-19T06:51:03.105Z,13.96
2023-05-19T06:52:03.299Z,14.02
2023-05-19T06:53:03.386Z,14.02
2023-05-19T06:54:03.234Z,14.01
2023-05-19T06:55:02.621Z,14.04
2023-05-19T06:56:02.683Z,14.12
2023-05-19T06:57:02.995Z,14.19
2023-05-19T06:58:02.669Z,14.26
2023-05-19T06:59:02.781Z,14.34
2023-05-19T07:00:02.801Z,14.37
2023-05-19T07:01:03.048Z,14.39
2023-05-19T07:02:03.427Z,14.42
2023-05-19T07:03:03.048Z,14.47
2023-05-19T07:04:03.281Z,14.55
2023-05-19T07:05:03.026Z,14.64
2023-05-19T07:06:03.756Z,14.73
2023-05-19T07:07:02.958Z,14.82
2023-05-19T07:08:02.482Z,14.90
2023-05-19T07:09:02.611Z,15.00
2023-05-19T07:10:02.610Z,15.09
2023-05-19T07:11:02.489Z,15.20
2023-05-19T07:12:02.404Z,15.28
2023-05-19T07:13:02.448Z,15.35
2023-05-19T07:14:02.516Z,15.44
2023-05-19T07:15:02.320Z,15.54
2023-05-19T07:16:02.435Z,15.66
2023-05-19T07:17:02.692Z,15.76
2023-05-19T07:18:02.384Z,15.79
2023-05-19T07:19:02.340Z,15.90
2023-05-19T07:20:02.660Z,16.00
2023-05-19T07:21:02.751Z,16.03
2023-05-19T07:22:02.992Z,16.10
2023-05-19T07:23:02.729Z,16.15
2023-05-19T07:24:02.914Z,16.24
2023-05-19T07:25:01.931Z,16.28
2023-05-19T07:26:02.624Z,16.33
2023-05-19T07:27:02.229Z,16.37
2023-05-19T07:28:02.471Z,16.39
2023-05-19T07:29:02.225Z,16.34
2023-05-19T07:30:02.512Z,16.38
2023-05-19T07:31:02.737Z,16.40
2023-05-19T07:32:03.044Z,16.49
2023-05-19T07:33:02.591Z,16.52
2023-05-19T07:34:02.725Z,16.61
2023-05-19T07:35:02.435Z,16.71
2023-05-19T07:36:02.100Z,16.79
2023-05-19T07:37:02.066Z,16.90
2023-05-19T07:38:01.936Z,16.96
2023-05-19T07:39:02.576Z,17.01
2023-05-19T07:40:02.357Z,17.07
2023-05-19T07:41:02.683Z,17.17
2023-05-19T07:42:02.335Z,17.24
2023-05-19T07:43:02.441Z,17.30
2023-05-19T07:44:02.784Z,17.34
2023-05-19T07:45:02.094Z,17.38
2023-05-19T07:46:02.380Z,17.42
2023-05-19T07:47:02.161Z,17.51
2023-05-19T07:48:01.750Z,17.60
2023-05-19T07:49:01.728Z,17.69
2023-05-19T07:50:02.247Z,17.75
2023-05-19T07:51:02.372Z,17.83
2023-05-19T07:52:02.293Z,17.85
2023-05-19T07:53:01.898Z,17.81
2023-05-19T07:54:02.386Z,17.87
2023-05-19T07:55:02.993Z,17.95
2023-05-19T07:56:02.936Z,18.00
2023-05-19T07:57:02.675Z,18.08
2023-05-19T07:58:02.879Z,18.09
2023-05-19T07:59:02.932Z,18.19
2023-05-19T08:00:02.722Z,18.24
2023-05-19T08:01:02.921Z,18.29
2023-05-19T08:02:02.777Z,18.38
2023-05-19T08:03:03.157Z,18.43
2023-05-19T08:04:03.123Z,18.50
2023-05-19T08:05:02.174Z,18.58
2023-05-19T08:06:02.467Z,18.61
2023-05-19T08:07:02.534Z,18.71
2023-05-19T08:08:02.464Z,18.80
2023-05-19T08:09:02.395Z,18.87
2023-05-19T08:10:03.053Z,18.94
2023-05-19T08:11:03.010Z,19.03
2023-05-19T08:12:02.693Z,19.03
2023-05-19T08:13:02.659Z,19.13
2023-05-19T08:14:02.757Z,19.18
2023-05-19T08:15:02.206Z,19.19
2023-05-19T08:16:02.676Z,19.26
2023-05-19T08:17:02.579Z,19.35
2023-05-19T08:18:02.541Z,19.40
2023-05-19T08:19:02.203Z,19.53
2023-05-19T08:20:01.857Z,19.64
2023-05-19T08:21:01.715Z,19.67
2023-05-19T08:22:01.834Z,19.74
2023-05-19T08:23:01.892Z,19.85
2023-05-19T08:24:02.199Z,19.90
2023-05-19T08:25:01.878Z,19.99
2023-05-19T08:26:02.230Z,20.10
2023-05-19T08:27:02.307Z,20.21
2023-05-19T08:28:02.101Z,20.31
2023-05-19T08:29:01.929Z,20.43
2023-05-19T08:30:02.785Z,20.55
2023-05-19T08:31:02.719Z,20.57
2023-05-19T08:32:02.514Z,20.65
2023-05-19T08:33:02.776Z,20.76
2023-05-19T08:34:03.096Z,20.78
2023-05-19T08:35:02.025Z,20.81
2023-05-19T08:36:01.867Z,20.89
2023-05-19T08:37:02.123Z,20.92
2023-05-19T08:38:01.726Z,20.89
2023-05-19T08:39:02.066Z,20.83
2023-05-19T08:40:02.493Z,20.85
2023-05-19T08:41:02.775Z,20.92
2023-05-19T08:42:02.351Z,21.01
2023-05-19T08:43:02.726Z,21.11
2023-05-19T08:44:02.729Z,21.21
2023-05-19T08:45:01.901Z,21.29
2023-05-19T08:46:01.718Z,21.34
2023-05-19T08:47:02.403Z,21.39
2023-05-19T08:48:02.341Z,21.38
2023-05-19T08:49:01.975Z,21.31
2023-05-19T08:50:02.108Z,21.31
2023-05-19T08:51:01.967Z,21.29
2023-05-19T08:52:02.068Z,21.33
2023-05-19T08:53:02.354Z,21.33
2023-05-19T08:54:02.463Z,21.31
2023-05-19T08:55:02.252Z,21.31
2023-05-19T08:56:01.998Z,21.26
2023-05-19T08:57:02.155Z,21.24
2023-05-19T08:58:01.911Z,21.32
2023-05-19T08:59:02.148Z,21.35
2023-05-19T09:00:02.307Z,21.39
2023-05-19T09:01:01.974Z,21.48
2023-05-19T09:02:01.896Z,21.56
2023-05-19T09:04:02.386Z,21.73
2023-05-19T09:05:03.246Z,21.84
2023-05-19T09:06:03.372Z,21.92
2023-05-19T09:07:03.635Z,21.96
2023-05-19T09:08:03.423Z,22.04
2023-05-19T09:09:03.548Z,21.97
2023-05-19T09:10:02.700Z,22.05
2023-05-19T09:11:02.230Z,22.08
2023-05-19T09:12:02.406Z,22.06
2023-05-19T09:13:02.586Z,22.08
2023-05-19T09:14:02.605Z,22.08
2023-05-19T09:15:02.720Z,22.05
2023-05-19T09:16:02.424Z,21.96
2023-05-19T09:17:02.728Z,21.89
2023-05-19T09:18:02.931Z,21.88
2023-05-19T09:19:02.994Z,21.85
2023-05-19T09:20:02.860Z,21.85
2023-05-19T09:21:03.126Z,21.92
2023-05-19T09:22:02.657Z,21.99
2023-05-19T09:23:02.900Z,22.07
2023-05-19T09:24:02.728Z,22.10
2023-05-19T09:25:02.872Z,22.15
2023-05-19T09:26:02.713Z,22.18
2023-05-19T09:27:03.036Z,22.11
2023-05-19T09:28:02.529Z,22.08
2023-05-19T09:29:02.731Z,22.13
2023-05-19T09:30:03.439Z,22.13
2023-05-19T09:31:03.145Z,22.18
2023-05-19T09:32:03.624Z,22.26
2023-05-19T09:33:03.649Z,22.36
2023-05-19T09:34:03.474Z,22.44
2023-05-19T09:35:03.084Z,22.50
2023-05-19T09:36:02.920Z,22.54
2023-05-19T09:37:02.977Z,22.62
2023-05-19T09:38:03.259Z,22.71
2023-05-19T09:39:03.040Z,22.71
2023-05-19T09:40:02.917Z,22.72
2023-05-19T09:41:02.951Z,22.67
2023-05-19T09:42:03.220Z,22.70
2023-05-19T09:43:03.452Z,22.73
2023-05-19T09:44:03.165Z,22.76
2023-05-19T09:45:03.465Z,22.82
2023-05-19T09:46:03.493Z,22.89
2023-05-19T09:47:03.622Z,22.99
2023-05-19T09:48:03.470Z,23.07
2023-05-19T09:49:03.152Z,23.17
2023-05-19T09:50:03.692Z,23.26
2023-05-19T09:51:03.565Z,23.29
2023-05-19T09:52:03.242Z,23.28
2023-05-19T09:53:03.385Z,23.23
2023-05-19T09:54:03.543Z,23.25
2023-05-19T09:55:02.719Z,23.30
2023-05-19T09:56:02.612Z,23.29
2023-05-19T09:57:02.499Z,23.35
2023-05-19T09:58:02.770Z,23.47
2023-05-19T09:59:02.975Z,23.51
2023-05-19T10:00:03.074Z,23.35
2023-05-19T10:01:02.662Z,23.40
2023-05-19T10:02:03.117Z,23.52
2023-05-19T10:03:03.261Z,23.62
2023-05-19T10:04:03.896Z,23.74
2023-05-19T10:05:02.566Z,23.88
2023-05-19T10:06:02.482Z,23.99
2023-05-19T10:07:02.047Z,24.04
2023-05-19T10:08:02.259Z,24.16
2023-05-19T10:09:02.439Z,24.27
2023-05-19T10:10:02.707Z,24.30
2023-05-19T10:11:02.740Z,24.22
2023-05-19T10:12:02.425Z,24.14
2023-05-19T10:13:02.699Z,23.97
2023-05-19T10:14:02.232Z,23.88
2023-05-19T10:15:02.788Z,23.95
2023-05-19T10:16:03.078Z,24.04
2023-05-19T10:17:02.633Z,24.13
2023-05-19T10:18:02.703Z,24.17
2023-05-19T10:19:02.789Z,24.19
2023-05-19T10:20:02.675Z,24.17
2023-05-19T10:21:02.970Z,24.10
2023-05-19T10:22:03.239Z,24.02
2023-05-19T10:23:03.068Z,24.09
2023-05-19T10:24:03.286Z,24.06
2023-05-19T10:25:02.767Z,24.12
2023-05-19T10:26:02.748Z,24.14
2023-05-19T10:27:02.651Z,24.25
2023-05-19T10:28:02.421Z,24.32
2023-05-19T10:29:02.847Z,24.36
2023-05-19T10:30:03.394Z,24.42
2023-05-19T10:31:03.186Z,24.42
2023-05-19T10:32:02.801Z,24.49
2023-05-19T10:33:03.202Z,24.61
2023-05-19T10:34:03.368Z,24.74
2023-05-19T10:35:03.389Z,24.85
2023-05-19T10:36:03.300Z,24.87
2023-05-19T10:37:03.394Z,24.95
2023-05-19T10:38:03.289Z,25.04
2023-05-19T10:39:03.196Z,25.15
2023-05-19T10:40:03.481Z,25.27
2023-05-19T10:41:03.279Z,25.38
2023-05-19T10:42:03.251Z,25.46
2023-05-19T10:43:03.362Z,25.53
2023-05-19T10:44:02.940Z,25.59
2023-05-19T10:45:02.450Z,25.70
2023-05-19T10:46:02.191Z,25.75
2023-05-19T10:47:02.752Z,25.74
2023-05-19T10:48:02.463Z,25.74
2023-05-19T10:49:02.203Z,25.78
2023-05-19T10:50:02.687Z,25.79
2023-05-19T10:51:02.791Z,25.76
2023-05-19T10:52:02.354Z,25.79
2023-05-19T10:53:02.529Z,25.86
2023-05-19T10:54:02.426Z,25.83
2023-05-19T10:55:03.234Z,25.84
2023-05-19T10:56:03.048Z,25.88
2023-05-19T10:57:03.378Z,25.97
2023-05-19T10:58:03.362Z,25.85
2023-05-19T10:59:03.198Z,25.88
2023-05-19T11:00:02.796Z,25.79
2023-05-19T11:01:02.885Z,25.65
2023-05-19T11:02:02.903Z,25.66
2023-05-19T11:03:02.294Z,25.58
2023-05-19T11:04:02.679Z,25.36
2023-05-19T11:05:02.679Z,25.32
2023-05-19T11:06:02.976Z,25.37
2023-05-19T11:07:02.741Z,25.31
2023-05-19T11:08:03.030Z,25.30
2023-05-19T11:09:02.940Z,25.40
2023-05-19T11:10:01.938Z,25.47
2023-05-19T11:11:02.129Z,25.47
2023-05-19T11:12:02.165Z,25.32
2023-05-19T11:13:02.287Z,25.15
2023-05-19T11:14:01.964Z,24.96
2023-05-19T11:15:02.645Z,24.76
2023-05-19T11:16:02.851Z,24.73
2023-05-19T11:17:03.075Z,24.67
2023-05-19T11:18:03.196Z,24.70
2023-05-19T11:19:02.858Z,24.78
2023-05-19T11:20:02.323Z,24.78
2023-05-19T11:21:02.487Z,24.82
2023-05-19T11:22:02.744Z,24.92
2023-05-19T11:23:02.566Z,25.04
2023-05-19T11:24:02.837Z,25.15
2023-05-19T11:25:01.768Z,25.26
2023-05-19T11:26:02.003Z,25.29
2023-05-19T11:27:01.823Z,25.36
2023-05-19T11:28:02.340Z,25.46
2023-05-19T11:29:02.067Z,25.54
2023-05-19T11:30:02.337Z,25.66
2023-05-19T11:31:02.602Z,25.79
2023-05-19T11:32:02.708Z,25.84
2023-05-19T11:33:02.192Z,25.82
2023-05-19T11:34:02.631Z,25.76
2023-05-19T11:35:02.365Z,25.85
2023-05-19T11:36:02.645Z,25.83
2023-05-19T11:37:02.385Z,25.81
2023-05-19T11:38:02.792Z,25.86
2023-05-19T11:39:02.464Z,25.93
2023-05-19T11:40:02.714Z,25.99
2023-05-19T11:41:02.971Z,26.05
2023-05-19T11:42:03.172Z,26.11
2023-05-19T11:43:03.127Z,26.16
2023-05-19T11:44:03.071Z,26.19
2023-05-19T11:45:03.411Z,26.21
2023-05-19T11:46:03.247Z,26.26
2023-05-19T11:47:03.305Z,26.28
2023-05-19T11:48:03.559Z,26.26
2023-05-19T11:49:02.982Z,26.19
2023-05-19T11:50:02.512Z,26.13
2023-05-19T11:51:02.786Z,26.10
2023-05-19T11:52:02.593Z,25.97
2023-05-19T11:53:02.603Z,25.95
2023-05-19T11:54:02.286Z,25.94
2023-05-19T11:55:02.435Z,25.95
2023-05-19T11:56:02.594Z,25.93
2023-05-19T11:57:02.291Z,25.84
2023-05-19T11:58:04.606Z,25.71
2023-05-19T11:59:02.711Z,25.65
2023-05-19T12:00:03.101Z,25.62
2023-05-19T12:01:03.060Z,25.50
2023-05-19T12:02:03.370Z,25.42
2023-05-19T12:03:02.981Z,25.35
2023-05-19T12:04:03.133Z,25.32
2023-05-19T12:05:02.661Z,25.30
2023-05-19T12:06:02.861Z,25.35
2023-05-19T12:07:02.560Z,25.39
2023-05-19T12:08:02.806Z,25.43
2023-05-19T12:09:02.689Z,25.47
2023-05-19T12:10:03.158Z,25.49
2023-05-19T12:11:03.279Z,25.50
2023-05-19T12:12:03.248Z,25.57
2023-05-19T12:13:03.261Z,25.65
2023-05-19T12:14:03.236Z,25.72
2023-05-19T12:15:03.002Z,25.46
2023-05-19T12:16:02.943Z,25.23
2023-05-19T12:17:03.318Z,25.15
2023-05-19T12:18:03.144Z,25.08
2023-05-19T12:19:03.039Z,25.03
2023-05-19T12:20:02.654Z,24.94
2023-05-19T12:21:02.852Z,24.91
2023-05-19T12:22:04.056Z,24.94
2023-05-19T12:23:02.681Z,25.00
2023-05-19T12:24:02.550Z,25.06
2023-05-19T12:25:03.264Z,25.11
2023-05-19T12:26:03.507Z,25.09
2023-05-19T12:27:03.091Z,25.11
2023-05-19T12:28:03.916Z,25.14
2023-05-19T12:29:03.216Z,25.16
2023-05-19T12:30:02.519Z,25.10
2023-05-19T12:31:02.612Z,25.11
2023-05-19T12:32:02.630Z,25.10
2023-05-19T12:33:02.811Z,25.13
2023-05-19T12:34:02.304Z,25.12
2023-05-19T12:35:02.556Z,25.14
2023-05-19T12:36:02.822Z,25.14
2023-05-19T12:37:02.760Z,25.18
2023-05-19T12:38:02.596Z,25.17
2023-05-19T12:39:02.218Z,25.06
2023-05-19T12:40:03.181Z,25.10
2023-05-19T12:41:03.367Z,25.15
2023-05-19T12:42:03.299Z,25.16
2023-05-19T12:43:03.465Z,25.15
2023-05-19T12:44:02.995Z,25.23
2023-05-19T12:45:03.314Z,25.31
2023-05-19T12:46:02.798Z,25.37
2023-05-19T12:47:02.999Z,25.33
2023-05-19T12:48:03.102Z,25.34
2023-05-19T12:49:02.776Z,25.38
2023-05-19T12:50:03.360Z,25.36
2023-05-19T12:51:03.106Z,25.26
2023-05-19T12:52:06.122Z,25.30
2023-05-19T12:53:03.335Z,25.39
2023-05-19T12:54:03.089Z,25.46
2023-05-19T12:55:03.133Z,25.50
2023-05-19T12:56:02.747Z,25.61
2023-05-19T12:57:02.886Z,25.75
2023-05-19T12:58:02.692Z,25.87
2023-05-19T12:59:02.624Z,25.95
2023-05-19T13:00:03.484Z,25.82
2023-05-19T13:01:03.066Z,25.80
2023-05-19T13:02:03.627Z,25.82
2023-05-19T13:03:03.209Z,25.81
2023-05-19T13:04:06.037Z,25.75
2023-05-19T13:05:03.653Z,25.58